Huvudsida
METAR-TAF:

METAR-TAF

Flygplatser :

Nouakchotts flygplats

Nouakchott, Mauretanien

latitud: 18-18-36N, longitud: 015-58-11W, höjd: 3 m

Aktuellt väderrapport

Denna rapport gjordes för 18 minuter sedan, klockan 15:30 UTC
Vind 18 kt från nordväst
Temperatur 27°C
Fuktighet 48%
Tryck 1011 hPa
Sikt: 8000 m

METAR: GQNO 221530Z 32018KT 8000 NSC 27/15 Q1011 NOSIG

Tid: 15:48 (15:48 UTC)

Väderprognos

Denna rapport gjordes för 4 timmar och 48 minuter sedan, klockan 11:00 UTC
Prognos gäller från 22 kl. 12 UTC till 23 kl. 18 UTC
Vind 16 kt från nord/nordväst
Sikt: 7000 m
Blir
från 22 kl. 15 UTC till 22 kl. 17 UTC
Sikt: 4500 m
högt sanddrev
Blir
från 22 kl. 18 UTC till 22 kl. 20 UTC
Sikt: 7000 m
Blir
från 23 kl. 07 UTC till 23 kl. 10 UTC
Vind 12 kt från nord/nordost
Blir
från 23 kl. 12 UTC till 23 kl. 14 UTC
Vind 15 kt från nord/nordväst

TAF: GQNO 221100Z 2212/2318 33016KT 7000 NSC BECMG 2215/2217 4500 BLSA BECMG 2218/2220 7000 NSW BECMG 2307/2310 03012KT BECMG 2312/2314 33015KT

Aktuella väderrapporter och prognoser från 4000 flygplatser (METAR- och TAF-rapporter).

De tillgängliga stationerna syns som gula och röda prickar på kartan.

För musen över prickarna för att se namnen på stationerna.

Klicka sedan för att få väderrapporter och prognoser.

För att ändra kartan: Klicka på de gröna knapparna med ett svart kors på för att zooma in; den gröna knappen med ett streck på för att zooma ut; eller på de gröna pilarna för angränsande kartor.


METAR-TAF: